Estación Meteorológica Peña el Pijo (Robertgarden) [ 11/12/18 20:48:27 CET ]

Fecha Hora Presion(HPa) Temp (°C) Humedad % Rocio (°C) Viento ( m/s) Direccion Lluvia 1Hora(mm) Lluvia 24H(mm) LLuvia Total(mm)
2018-Sep-14 01:01:40 1012.900 15.3 81 12.1         344.98
2018-Sep-14 02:01:56 1012.800 14.9 83 12.0         344.98
2018-Sep-14 03:01:42 1012.600 15.1 84 12.4         344.98
2018-Sep-14 04:01:45 1012.400 14.4 84 11.7         344.98
2018-Sep-14 05:08:08 1012.000 13.8 85 11.3         344.98
2018-Sep-14 06:01:43 1011.800 13.1 86 10.8         344.98
2018-Sep-14 07:01:51 1012.100 12.8 87 10.7         344.98
2018-Sep-14 08:01:47 1012.400 12.1 87 10.0         344.98
2018-Sep-14 09:01:58 1012.700 13.3 88 11.3         344.98
2018-Sep-14 10:01:36 1012.800 15.8 89 14.0         344.98
2018-Sep-14 11:01:42 1013.100 19.5 84 16.7         344.98
2018-Sep-14 12:01:37 1013.000 27.7 54 17.5         344.98
2018-Sep-14 13:01:53 1012.800 25.8 54 15.8         344.98
2018-Sep-14 14:01:50 1012.400 25.7 55 16.0         344.98
2018-Sep-14 15:01:33 1012.000 26.9 52 16.2         344.98
2018-Sep-14 16:01:43 1011.700 27.1 38 11.5         344.98
2018-Sep-14 17:01:33 1011.300 27.5 40 12.8         344.98
2018-Sep-14 18:01:53 1011.100 26.7 46 14.1         344.98
2018-Sep-14 19:01:50 1011.200 25.2 44 12.0         344.98
2018-Sep-14 20:01:53 1011.600 21.6 50 10.7         344.98
2018-Sep-14 21:01:51 1011.800 18.9 60 11.0         344.98
2018-Sep-14 22:01:49 1012.100 16.9 70 11.4         344.98
2018-Sep-14 23:01:44 1012.000 15.5 76 11.3         344.98

Temperatura Máxima:27°    Temperatura Mínima:12°
Presión Máxima:1013.100 Hpa    Presión Mínima:1011.100 Hpa


Volver